Holloman Air Force Base
KHMN : now visible

Aeroporto :











RITROVATECI SU...

 
LOGIN :

Iscrizione | Disclaimer

   EN    FR    IT 

 









Sommario :    VFR   VFR Marginale   IFR   IFR Intensivo   IFR Molto Intensivo
Visibilità : 
Base nubi : 
>= 8 km
>= 3000ft
5 / 8 km
1000 / 3000 ft
1500m / 5 km
500 / 1000 ft
800 / 1500m
200 / 500 ft
< 800m
< 200 ft
Simboli :   Temporali  Nebbia  Neve Forte  Precipitazioni Forti  Vento > 20 kt






- Altitudine del aeroporto : 4093 ft


KHMN - Holloman Air Force Base

ULTIMO METAR :
  • 250658Z AUTO 30003KT 10SM CLR 04/M02 A3005 RMK AO2 SLP152 T00381018 401601023 $

METARs OBSOLETI :
  • 250558Z AUTO 30005KT 10SM CLR 04/M02 A3005 RMK AO2 SLPNO T00361020 10147 20036 52008 $
  • 250458Z AUTO 05005KT 10SM CLR 05/M02 A3004 RMK AO2 SLP151 T00501021 $

TAF TAF KHMN
Valido dal 24 a 17 ore il 25 a 15 ore UTC


241700Z 2417/2515 VRB06KT 9999 FEW250 QNH3011INS TX16/2422Z TNM01/2514Z



MetMap, La meteo Aeronautica in un colpo d'occhio ! - Copyright ORBIFLY Dicembre 2007 - Disclaimer

ORBIFLY MET'MAP TEAM :

Programmazione e sviluppo : Alexandra Zaïnal
Concezione : Baudouin d'Aumeries
Aiuto per la programmazione : Marc-Olivier Méhu
Supporto tecnico e logistico : Manuel Goepfert
Aiuto per la traduzione : Arnaldo La Scala

Contatto : metmap@orbifly.com




FONTI E CREDITI :

   NOAA       Earth
Advisory